RYR8UC EPMO-LGKR
Flight info
| Callsign | RYR8UC |
|---|---|
| Flight time | 1h 55m |
| Altitude | 38000 |
| Route | EVINA DCT KUKAM M66 BABKO/N0463F370 DCT KEROP DCT RODON/N0389F190 N732 PITAS |
| Aircraft | B738/M-SDE2E3FGHIRWXY/LB1 |
Departure
| Time | 2026-04-22 12:47 |
|---|---|
| Airport | Warsaw Modlin Airport (EPMO) |
Arrival
| Time | 2026-04-22 14:42 |
|---|---|
| Airport | Corfu Ioannis Kapodistrias International Airport (LGKR) |
| Time | Latitude | Longitude | Altitude | Speed | Heading |
|---|---|---|---|---|---|
| 2026-04-22 12:35 | 52.44777 | 20.65580 | 337 ft | 0 kts | 206° |
| 2026-04-22 12:41 | 52.44781 | 20.65583 | 334 ft | 0 kts | 206° |
| 2026-04-22 12:41 | 52.44785 | 20.65586 | 334 ft | 1 kts | 206° |
| 2026-04-22 12:41 | 52.44793 | 20.65592 | 333 ft | 1 kts | 206° |
| 2026-04-22 12:41 | 52.44801 | 20.65600 | 332 ft | 1 kts | 195° |
| 2026-04-22 12:42 | 52.44810 | 20.65601 | 333 ft | 1 kts | 159° |
| 2026-04-22 12:42 | 52.44818 | 20.65592 | 335 ft | 1 kts | 109° |
| 2026-04-22 12:42 | 52.44821 | 20.65578 | 332 ft | 0 kts | 82° |
| 2026-04-22 12:43 | 52.44821 | 20.65579 | 332 ft | 1 kts | 82° |
| 2026-04-22 12:44 | 52.44826 | 20.65632 | 333 ft | 9 kts | 81° |
| 2026-04-22 12:44 | 52.44840 | 20.65775 | 335 ft | 17 kts | 80° |
| 2026-04-22 12:44 | 52.44857 | 20.65986 | 337 ft | 21 kts | 78° |
| 2026-04-22 12:44 | 52.44882 | 20.66257 | 334 ft | 27 kts | 82° |
| 2026-04-22 12:45 | 52.44915 | 20.66580 | 337 ft | 30 kts | 80° |
| 2026-04-22 12:45 | 52.44944 | 20.66893 | 335 ft | 18 kts | 85° |
| 2026-04-22 12:45 | 52.44986 | 20.67075 | 335 ft | 16 kts | 21° |
| 2026-04-22 12:45 | 52.45060 | 20.67067 | 336 ft | 11 kts | 351° |
| 2026-04-22 12:46 | 52.45145 | 20.67045 | 334 ft | 13 kts | 351° |
| 2026-04-22 12:46 | 52.45243 | 20.67006 | 337 ft | 15 kts | 339° |
| 2026-04-22 12:46 | 52.45285 | 20.66922 | 336 ft | 9 kts | 263° |
| 2026-04-22 12:46 | 52.45282 | 20.66883 | 333 ft | 0 kts | 259° |
| 2026-04-22 12:47 | 52.45278 | 20.66844 | 335 ft | 22 kts | 261° |
| 2026-04-22 12:47 | 52.45210 | 20.66124 | 335 ft | 104 kts | 261° |
| 2026-04-22 12:47 | 52.45065 | 20.64601 | 475 ft | 156 kts | 264° |
| 2026-04-22 12:47 | 52.44873 | 20.62691 | 1117 ft | 181 kts | 264° |
| 2026-04-22 12:48 | 52.44672 | 20.60573 | 1982 ft | 196 kts | 265° |
| 2026-04-22 12:48 | 52.44436 | 20.58386 | 2905 ft | 190 kts | 264° |
| 2026-04-22 12:48 | 52.44082 | 20.56199 | 3461 ft | 212 kts | 246° |
| 2026-04-22 12:48 | 52.42881 | 20.54513 | 3686 ft | 255 kts | 201° |
| 2026-04-22 12:49 | 52.41045 | 20.54033 | 4293 ft | 274 kts | 187° |
| 2026-04-22 12:49 | 52.39140 | 20.53742 | 5242 ft | 278 kts | 187° |
| 2026-04-22 12:49 | 52.37184 | 20.53440 | 6054 ft | 287 kts | 186° |
| 2026-04-22 12:49 | 52.35166 | 20.53120 | 6887 ft | 293 kts | 186° |
| 2026-04-22 12:50 | 52.33130 | 20.52787 | 7771 ft | 295 kts | 186° |
| 2026-04-22 12:50 | 52.31065 | 20.52439 | 8659 ft | 299 kts | 186° |
| 2026-04-22 12:50 | 52.28976 | 20.52077 | 9551 ft | 302 kts | 186° |
| 2026-04-22 12:50 | 52.26876 | 20.51708 | 10384 ft | 307 kts | 186° |
| 2026-04-22 12:51 | 52.24683 | 20.51320 | 10726 ft | 329 kts | 186° |
| 2026-04-22 12:51 | 52.22317 | 20.50897 | 10935 ft | 354 kts | 186° |
| 2026-04-22 12:51 | 52.19785 | 20.50441 | 11160 ft | 376 kts | 186° |
| 2026-04-22 12:51 | 52.17148 | 20.49965 | 11701 ft | 386 kts | 186° |
| 2026-04-22 12:52 | 52.14461 | 20.49481 | 12433 ft | 390 kts | 186° |
| 2026-04-22 12:52 | 52.11749 | 20.48990 | 13210 ft | 394 kts | 186° |
| 2026-04-22 12:52 | 52.09014 | 20.48495 | 13965 ft | 398 kts | 185° |
| 2026-04-22 12:52 | 52.06241 | 20.47994 | 14599 ft | 403 kts | 185° |
| 2026-04-22 12:53 | 52.03444 | 20.47489 | 15268 ft | 406 kts | 185° |
| 2026-04-22 12:53 | 52.00621 | 20.46981 | 15955 ft | 409 kts | 185° |
| 2026-04-22 12:53 | 51.97809 | 20.46475 | 16624 ft | 413 kts | 185° |
| 2026-04-22 12:53 | 51.94938 | 20.45960 | 17302 ft | 418 kts | 184° |
| 2026-04-22 12:54 | 51.92010 | 20.45436 | 17918 ft | 421 kts | 184° |
| 2026-04-22 12:54 | 51.89067 | 20.44909 | 18538 ft | 426 kts | 184° |
| 2026-04-22 12:54 | 51.86109 | 20.44379 | 19078 ft | 429 kts | 184° |
| 2026-04-22 12:54 | 51.83133 | 20.43847 | 19634 ft | 432 kts | 183° |
| 2026-04-22 12:55 | 51.81146 | 20.43492 | 20002 ft | 434 kts | 183° |
| 2026-04-22 12:55 | 51.77108 | 20.42772 | 20720 ft | 438 kts | 183° |
| 2026-04-22 12:55 | 51.74066 | 20.42231 | 21244 ft | 442 kts | 183° |
| 2026-04-22 12:55 | 51.71003 | 20.41686 | 21768 ft | 445 kts | 183° |
| 2026-04-22 12:56 | 51.67907 | 20.41137 | 22281 ft | 448 kts | 182° |
| 2026-04-22 12:56 | 51.64793 | 20.40585 | 22784 ft | 452 kts | 182° |
| 2026-04-22 12:56 | 51.61662 | 20.40030 | 23274 ft | 455 kts | 182° |
| 2026-04-22 12:56 | 51.59566 | 20.39660 | 23593 ft | 457 kts | 182° |
| 2026-04-22 12:57 | 51.55327 | 20.38911 | 24142 ft | 461 kts | 182° |
| 2026-04-22 12:57 | 51.53210 | 20.38537 | 24414 ft | 462 kts | 182° |
| 2026-04-22 12:57 | 51.50000 | 20.37970 | 24817 ft | 465 kts | 181° |
| 2026-04-22 12:57 | 51.46779 | 20.37403 | 25210 ft | 467 kts | 181° |
| 2026-04-22 12:58 | 51.43536 | 20.36833 | 25585 ft | 469 kts | 181° |
| 2026-04-22 12:58 | 51.40280 | 20.36256 | 25965 ft | 472 kts | 182° |
| 2026-04-22 12:58 | 51.37031 | 20.35277 | 26316 ft | 481 kts | 191° |
| 2026-04-22 12:58 | 51.33828 | 20.33662 | 26672 ft | 485 kts | 194° |
| 2026-04-22 12:59 | 51.30621 | 20.31938 | 27012 ft | 488 kts | 194° |
| 2026-04-22 12:59 | 51.27393 | 20.30189 | 27336 ft | 491 kts | 194° |
| 2026-04-22 12:59 | 51.24145 | 20.28448 | 27651 ft | 493 kts | 193° |
| 2026-04-22 12:59 | 51.20878 | 20.26725 | 28005 ft | 495 kts | 193° |
| 2026-04-22 13:00 | 51.17598 | 20.25017 | 28341 ft | 497 kts | 193° |
| 2026-04-22 13:00 | 51.14300 | 20.23315 | 28649 ft | 499 kts | 193° |
| 2026-04-22 13:00 | 51.10986 | 20.21613 | 29030 ft | 499 kts | 192° |
| 2026-04-22 13:00 | 51.07723 | 20.19939 | 29510 ft | 498 kts | 192° |
| 2026-04-22 13:01 | 51.04398 | 20.18233 | 30010 ft | 496 kts | 192° |
| 2026-04-22 13:01 | 51.01110 | 20.16549 | 30420 ft | 495 kts | 192° |
| 2026-04-22 13:01 | 50.97874 | 20.14895 | 30774 ft | 495 kts | 193° |
| 2026-04-22 13:01 | 50.94598 | 20.13222 | 31123 ft | 494 kts | 193° |
| 2026-04-22 13:02 | 50.91329 | 20.11555 | 31492 ft | 493 kts | 193° |
| 2026-04-22 13:02 | 50.88069 | 20.09895 | 31853 ft | 492 kts | 193° |
| 2026-04-22 13:02 | 50.84809 | 20.08237 | 32192 ft | 492 kts | 193° |
| 2026-04-22 13:02 | 50.81550 | 20.06583 | 32528 ft | 491 kts | 193° |
| 2026-04-22 13:03 | 50.78262 | 20.04914 | 32905 ft | 490 kts | 193° |
| 2026-04-22 13:03 | 50.75013 | 20.03266 | 33257 ft | 490 kts | 194° |
| 2026-04-22 13:03 | 50.71720 | 20.01595 | 33571 ft | 490 kts | 194° |
| 2026-04-22 13:03 | 50.68477 | 19.99952 | 33915 ft | 489 kts | 194° |
| 2026-04-22 13:04 | 50.65241 | 19.98314 | 34232 ft | 489 kts | 194° |
| 2026-04-22 13:04 | 50.62010 | 19.96682 | 34497 ft | 488 kts | 195° |
| 2026-04-22 13:04 | 50.58776 | 19.95050 | 34729 ft | 488 kts | 195° |
| 2026-04-22 13:04 | 50.55529 | 19.93415 | 34974 ft | 489 kts | 195° |
| 2026-04-22 13:05 | 50.52294 | 19.91788 | 35251 ft | 487 kts | 195° |
| 2026-04-22 13:05 | 50.49089 | 19.90178 | 35518 ft | 487 kts | 195° |
| 2026-04-22 13:05 | 50.45846 | 19.88551 | 35738 ft | 487 kts | 195° |
| 2026-04-22 13:05 | 50.42603 | 19.86927 | 35947 ft | 488 kts | 195° |
| 2026-04-22 13:06 | 50.39369 | 19.85311 | 36185 ft | 487 kts | 195° |
| 2026-04-22 13:06 | 50.36125 | 19.83693 | 36439 ft | 487 kts | 195° |
| 2026-04-22 13:06 | 50.32917 | 19.82095 | 36669 ft | 487 kts | 195° |
| 2026-04-22 13:06 | 50.29693 | 19.80488 | 36916 ft | 486 kts | 196° |
| 2026-04-22 13:07 | 50.26473 | 19.78885 | 37145 ft | 485 kts | 196° |
| 2026-04-22 13:07 | 50.23260 | 19.77288 | 37369 ft | 485 kts | 196° |
| 2026-04-22 13:07 | 50.20046 | 19.75694 | 37594 ft | 485 kts | 196° |
| 2026-04-22 13:07 | 50.16828 | 19.74100 | 37795 ft | 485 kts | 196° |
| 2026-04-22 13:08 | 50.13600 | 19.72503 | 37989 ft | 485 kts | 196° |
| 2026-04-22 13:08 | 50.10387 | 19.70917 | 38163 ft | 485 kts | 196° |
| 2026-04-22 13:08 | 50.07164 | 19.69328 | 38141 ft | 486 kts | 196° |
| 2026-04-22 13:09 | 50.00842 | 19.66217 | 38146 ft | 484 kts | 196° |
| 2026-04-22 13:09 | 49.94250 | 19.62982 | 38151 ft | 483 kts | 196° |
| 2026-04-22 13:10 | 49.87845 | 19.59848 | 38139 ft | 482 kts | 196° |
| 2026-04-22 13:10 | 49.81452 | 19.56728 | 38145 ft | 481 kts | 196° |
| 2026-04-22 13:11 | 49.75066 | 19.53620 | 38151 ft | 480 kts | 196° |
| 2026-04-22 13:11 | 49.68692 | 19.50526 | 38151 ft | 480 kts | 196° |
| 2026-04-22 13:12 | 49.62274 | 19.47621 | 38133 ft | 480 kts | 189° |
| 2026-04-22 13:12 | 49.55659 | 19.47082 | 38162 ft | 475 kts | 175° |
| 2026-04-22 13:13 | 49.49057 | 19.47652 | 38146 ft | 476 kts | 174° |
| 2026-04-22 13:13 | 49.42429 | 19.48208 | 38140 ft | 477 kts | 175° |
| 2026-04-22 13:14 | 49.35784 | 19.48706 | 38136 ft | 478 kts | 175° |
| 2026-04-22 13:14 | 49.29131 | 19.49175 | 38142 ft | 479 kts | 175° |
| 2026-04-22 13:15 | 49.22466 | 19.49638 | 38133 ft | 480 kts | 175° |
| 2026-04-22 13:15 | 49.15795 | 19.50101 | 38128 ft | 480 kts | 175° |
| 2026-04-22 13:16 | 49.09120 | 19.50566 | 38123 ft | 480 kts | 175° |
| 2026-04-22 13:16 | 49.02434 | 19.51031 | 38123 ft | 481 kts | 175° |
| 2026-04-22 13:17 | 48.95747 | 19.51495 | 38108 ft | 481 kts | 175° |
| 2026-04-22 13:17 | 48.89063 | 19.51957 | 38113 ft | 481 kts | 175° |
| 2026-04-22 13:18 | 48.82342 | 19.52421 | 38095 ft | 481 kts | 175° |
| 2026-04-22 13:18 | 48.75675 | 19.52879 | 38109 ft | 480 kts | 175° |
| 2026-04-22 13:19 | 48.69044 | 19.53334 | 38101 ft | 480 kts | 176° |
| 2026-04-22 13:19 | 48.62398 | 19.54061 | 38097 ft | 478 kts | 176° |
| 2026-04-22 13:20 | 48.55754 | 19.54297 | 38098 ft | 477 kts | 177° |
| 2026-04-22 13:20 | 48.49117 | 19.54666 | 38080 ft | 477 kts | 176° |
| 2026-04-22 13:21 | 48.42497 | 19.55120 | 38081 ft | 476 kts | 176° |
| 2026-04-22 13:21 | 48.35880 | 19.55584 | 38084 ft | 476 kts | 176° |
| 2026-04-22 13:22 | 48.29268 | 19.56037 | 38093 ft | 476 kts | 176° |
| 2026-04-22 13:22 | 48.22642 | 19.56485 | 38090 ft | 476 kts | 176° |
| 2026-04-22 13:23 | 48.16010 | 19.56930 | 38082 ft | 477 kts | 176° |
| 2026-04-22 13:23 | 48.09370 | 19.57374 | 38095 ft | 477 kts | 176° |
| 2026-04-22 13:24 | 48.02732 | 19.57818 | 38093 ft | 478 kts | 177° |
| 2026-04-22 13:24 | 47.96046 | 19.58263 | 38095 ft | 478 kts | 177° |
| 2026-04-22 13:25 | 47.89396 | 19.58705 | 38097 ft | 478 kts | 177° |
| 2026-04-22 13:25 | 47.82742 | 19.59147 | 38097 ft | 478 kts | 177° |
| 2026-04-22 13:26 | 47.76098 | 19.59586 | 38096 ft | 478 kts | 177° |
| 2026-04-22 13:26 | 47.69443 | 19.60025 | 38102 ft | 478 kts | 177° |
| 2026-04-22 13:27 | 47.62794 | 19.60463 | 38112 ft | 479 kts | 177° |
| 2026-04-22 13:27 | 47.56126 | 19.60901 | 38117 ft | 479 kts | 178° |
| 2026-04-22 13:28 | 47.49491 | 19.61335 | 38127 ft | 479 kts | 178° |
| 2026-04-22 13:28 | 47.43885 | 19.61701 | 38116 ft | 480 kts | 178° |
| 2026-04-22 13:29 | 47.37213 | 19.62136 | 38110 ft | 480 kts | 178° |
| 2026-04-22 13:29 | 47.30549 | 19.62569 | 38119 ft | 480 kts | 178° |
| 2026-04-22 13:30 | 47.23874 | 19.63002 | 38120 ft | 480 kts | 178° |
| 2026-04-22 13:30 | 47.17204 | 19.63433 | 38118 ft | 480 kts | 178° |
| 2026-04-22 13:31 | 47.10530 | 19.63864 | 38119 ft | 480 kts | 178° |
| 2026-04-22 13:31 | 47.03860 | 19.64293 | 38120 ft | 480 kts | 178° |
| 2026-04-22 13:32 | 46.97182 | 19.64722 | 38124 ft | 480 kts | 178° |
| 2026-04-22 13:32 | 46.90503 | 19.65149 | 38116 ft | 480 kts | 178° |
| 2026-04-22 13:33 | 46.83837 | 19.65575 | 38122 ft | 480 kts | 178° |
| 2026-04-22 13:33 | 46.77157 | 19.66001 | 38115 ft | 480 kts | 178° |
| 2026-04-22 13:34 | 46.70484 | 19.66425 | 38119 ft | 482 kts | 178° |
| 2026-04-22 13:34 | 46.63826 | 19.66847 | 38106 ft | 480 kts | 178° |
| 2026-04-22 13:35 | 46.57125 | 19.67271 | 38116 ft | 477 kts | 178° |
| 2026-04-22 13:35 | 46.50522 | 19.67688 | 38117 ft | 474 kts | 179° |
| 2026-04-22 13:36 | 46.43939 | 19.68102 | 38123 ft | 473 kts | 179° |
| 2026-04-22 13:36 | 46.37401 | 19.68512 | 38126 ft | 472 kts | 179° |
| 2026-04-22 13:37 | 46.30833 | 19.68924 | 38130 ft | 473 kts | 179° |
| 2026-04-22 13:37 | 46.24239 | 19.69336 | 38124 ft | 475 kts | 179° |
| 2026-04-22 13:38 | 46.17624 | 19.69679 | 38130 ft | 476 kts | 183° |
| 2026-04-22 13:38 | 46.07713 | 19.68415 | 38120 ft | 478 kts | 188° |
| 2026-04-22 13:39 | 46.01081 | 19.67388 | 38137 ft | 480 kts | 188° |
| 2026-04-22 13:39 | 45.94428 | 19.66430 | 38132 ft | 482 kts | 187° |
| 2026-04-22 13:40 | 45.87738 | 19.65516 | 38127 ft | 483 kts | 187° |
| 2026-04-22 13:40 | 45.81040 | 19.64616 | 38128 ft | 483 kts | 187° |
| 2026-04-22 13:41 | 45.74358 | 19.63718 | 38134 ft | 482 kts | 187° |
| 2026-04-22 13:41 | 45.67683 | 19.62821 | 38129 ft | 482 kts | 187° |
| 2026-04-22 13:42 | 45.61009 | 19.61925 | 38127 ft | 481 kts | 187° |
| 2026-04-22 13:42 | 45.54355 | 19.61033 | 38127 ft | 480 kts | 187° |
| 2026-04-22 13:43 | 45.47722 | 19.60147 | 38133 ft | 479 kts | 188° |
| 2026-04-22 13:43 | 45.41137 | 19.59269 | 38129 ft | 478 kts | 188° |
| 2026-04-22 13:44 | 45.34524 | 19.58389 | 38129 ft | 477 kts | 188° |
| 2026-04-22 13:44 | 45.27919 | 19.57512 | 38130 ft | 476 kts | 188° |
| 2026-04-22 13:45 | 45.21326 | 19.56639 | 38127 ft | 475 kts | 188° |
| 2026-04-22 13:45 | 45.14701 | 19.55764 | 38134 ft | 475 kts | 188° |
| 2026-04-22 13:46 | 45.08117 | 19.54896 | 38131 ft | 476 kts | 188° |
| 2026-04-22 13:46 | 45.01556 | 19.54033 | 38134 ft | 476 kts | 188° |
| 2026-04-22 13:47 | 44.94971 | 19.53170 | 38133 ft | 476 kts | 188° |
| 2026-04-22 13:47 | 44.88378 | 19.52307 | 38133 ft | 476 kts | 188° |
| 2026-04-22 13:48 | 44.81791 | 19.51447 | 38128 ft | 475 kts | 188° |
| 2026-04-22 13:48 | 44.75193 | 19.50587 | 38143 ft | 476 kts | 188° |
| 2026-04-22 13:49 | 44.68591 | 19.49729 | 38142 ft | 476 kts | 188° |
| 2026-04-22 13:49 | 44.61988 | 19.48873 | 38134 ft | 476 kts | 189° |
| 2026-04-22 13:50 | 44.55384 | 19.48018 | 38134 ft | 477 kts | 189° |
| 2026-04-22 13:50 | 44.48784 | 19.47166 | 38142 ft | 477 kts | 189° |
| 2026-04-22 13:51 | 44.42170 | 19.46315 | 38137 ft | 477 kts | 189° |
| 2026-04-22 13:51 | 44.35563 | 19.45466 | 38152 ft | 477 kts | 189° |
| 2026-04-22 13:52 | 44.28956 | 19.44618 | 38144 ft | 477 kts | 189° |
| 2026-04-22 13:52 | 44.22343 | 19.43773 | 38147 ft | 477 kts | 189° |
| 2026-04-22 13:53 | 44.15776 | 19.42934 | 38136 ft | 478 kts | 189° |
| 2026-04-22 13:53 | 44.09158 | 19.42092 | 38121 ft | 477 kts | 189° |
| 2026-04-22 13:54 | 44.02569 | 19.41255 | 38146 ft | 475 kts | 189° |
| 2026-04-22 13:54 | 43.95982 | 19.40420 | 38138 ft | 475 kts | 189° |
| 2026-04-22 13:55 | 43.89400 | 19.39587 | 38116 ft | 475 kts | 190° |
| 2026-04-22 13:55 | 43.82829 | 19.38758 | 38133 ft | 474 kts | 190° |
| 2026-04-22 13:56 | 43.76258 | 19.37930 | 38134 ft | 474 kts | 190° |
| 2026-04-22 13:56 | 43.69695 | 19.37105 | 38125 ft | 473 kts | 190° |
| 2026-04-22 13:57 | 43.63132 | 19.36282 | 38129 ft | 474 kts | 190° |
| 2026-04-22 13:57 | 43.56575 | 19.35461 | 38130 ft | 473 kts | 190° |
| 2026-04-22 13:58 | 43.50011 | 19.34641 | 38116 ft | 473 kts | 191° |
| 2026-04-22 13:58 | 43.43433 | 19.33821 | 38117 ft | 475 kts | 190° |
| 2026-04-22 13:59 | 43.36839 | 19.33002 | 38125 ft | 476 kts | 190° |
| 2026-04-22 13:59 | 43.30241 | 19.32184 | 38113 ft | 476 kts | 191° |
| 2026-04-22 14:00 | 43.23627 | 19.31366 | 38128 ft | 477 kts | 191° |
| 2026-04-22 14:00 | 43.16957 | 19.30541 | 38101 ft | 479 kts | 191° |
| 2026-04-22 14:01 | 43.10319 | 19.29725 | 38096 ft | 478 kts | 191° |
| 2026-04-22 14:01 | 43.03692 | 19.28910 | 38081 ft | 478 kts | 191° |
| 2026-04-22 14:02 | 42.97069 | 19.28098 | 38082 ft | 477 kts | 191° |
| 2026-04-22 14:02 | 42.90455 | 19.27289 | 38069 ft | 476 kts | 191° |
| 2026-04-22 14:03 | 42.83848 | 19.26480 | 38034 ft | 477 kts | 191° |
| 2026-04-22 14:03 | 42.77242 | 19.25676 | 38014 ft | 475 kts | 191° |
| 2026-04-22 14:04 | 42.70664 | 19.24877 | 38017 ft | 474 kts | 191° |
| 2026-04-22 14:04 | 42.64107 | 19.24082 | 38000 ft | 472 kts | 191° |
| 2026-04-22 14:05 | 42.57575 | 19.23290 | 37982 ft | 471 kts | 192° |
| 2026-04-22 14:06 | 42.47793 | 19.22107 | 37996 ft | 470 kts | 192° |
| 2026-04-22 14:06 | 42.41275 | 19.21321 | 37998 ft | 470 kts | 192° |
| 2026-04-22 14:07 | 42.34752 | 19.20537 | 37990 ft | 470 kts | 192° |
| 2026-04-22 14:07 | 42.29330 | 19.19887 | 37990 ft | 470 kts | 192° |
| 2026-04-22 14:08 | 42.22822 | 19.19107 | 37999 ft | 470 kts | 192° |
| 2026-04-22 14:08 | 42.16297 | 19.18327 | 37993 ft | 470 kts | 193° |
| 2026-04-22 14:09 | 42.09783 | 19.17551 | 37995 ft | 470 kts | 193° |
| 2026-04-22 14:09 | 42.03256 | 19.16778 | 37997 ft | 471 kts | 193° |
| 2026-04-22 14:10 | 41.96733 | 19.16001 | 37992 ft | 470 kts | 193° |
| 2026-04-22 14:10 | 41.90213 | 19.15226 | 37988 ft | 470 kts | 193° |
| 2026-04-22 14:11 | 41.83704 | 19.14456 | 37989 ft | 469 kts | 193° |
| 2026-04-22 14:11 | 41.77220 | 19.13691 | 37984 ft | 467 kts | 194° |
| 2026-04-22 14:12 | 41.70803 | 19.12934 | 37987 ft | 466 kts | 194° |
| 2026-04-22 14:12 | 41.64329 | 19.12172 | 37995 ft | 466 kts | 194° |
| 2026-04-22 14:13 | 41.57866 | 19.11413 | 37990 ft | 466 kts | 194° |
| 2026-04-22 14:13 | 41.51366 | 19.10651 | 37997 ft | 467 kts | 194° |
| 2026-04-22 14:14 | 41.44769 | 19.10790 | 38000 ft | 487 kts | 178° |
| 2026-04-22 14:14 | 41.41449 | 19.11895 | 37998 ft | 499 kts | 168° |
| 2026-04-22 14:14 | 41.38182 | 19.13475 | 37983 ft | 501 kts | 167° |
| 2026-04-22 14:15 | 41.31707 | 19.16779 | 37994 ft | 502 kts | 166° |
| 2026-04-22 14:15 | 41.25163 | 19.20068 | 37998 ft | 502 kts | 167° |
| 2026-04-22 14:16 | 41.18554 | 19.23303 | 37997 ft | 503 kts | 167° |
| 2026-04-22 14:16 | 41.12023 | 19.26465 | 37988 ft | 503 kts | 167° |
| 2026-04-22 14:17 | 41.05437 | 19.29648 | 37778 ft | 507 kts | 167° |
| 2026-04-22 14:17 | 41.02110 | 19.31252 | 37218 ft | 508 kts | 167° |
| 2026-04-22 14:17 | 40.98804 | 19.32851 | 36660 ft | 506 kts | 168° |
| 2026-04-22 14:17 | 40.95503 | 19.34446 | 36034 ft | 505 kts | 168° |
| 2026-04-22 14:18 | 40.92206 | 19.36036 | 35426 ft | 505 kts | 168° |
| 2026-04-22 14:18 | 40.88899 | 19.37628 | 34793 ft | 506 kts | 168° |
| 2026-04-22 14:18 | 40.85582 | 19.39221 | 34108 ft | 509 kts | 168° |
| 2026-04-22 14:18 | 40.82258 | 19.40817 | 33298 ft | 507 kts | 168° |
| 2026-04-22 14:19 | 40.78948 | 19.42408 | 32327 ft | 505 kts | 168° |
| 2026-04-22 14:19 | 40.75646 | 19.43992 | 31267 ft | 505 kts | 169° |
| 2026-04-22 14:19 | 40.72339 | 19.45576 | 30176 ft | 505 kts | 168° |
| 2026-04-22 14:19 | 40.69063 | 19.47146 | 29340 ft | 500 kts | 168° |
| 2026-04-22 14:20 | 40.62508 | 19.50273 | 27589 ft | 502 kts | 168° |
| 2026-04-22 14:20 | 40.59239 | 19.51833 | 26966 ft | 497 kts | 168° |
| 2026-04-22 14:20 | 40.56003 | 19.53378 | 26342 ft | 492 kts | 168° |
| 2026-04-22 14:21 | 40.49629 | 19.56379 | 25121 ft | 481 kts | 171° |
| 2026-04-22 14:21 | 40.46403 | 19.57150 | 24509 ft | 458 kts | 188° |
| 2026-04-22 14:22 | 40.40703 | 19.55228 | 23443 ft | 401 kts | 223° |
| 2026-04-22 14:22 | 40.38705 | 19.52828 | 23097 ft | 389 kts | 241° |
| 2026-04-22 14:22 | 40.37017 | 19.46143 | 22560 ft | 396 kts | 270° |
| 2026-04-22 14:23 | 40.36986 | 19.42762 | 22256 ft | 381 kts | 273° |
| 2026-04-22 14:23 | 40.37042 | 19.39354 | 21934 ft | 368 kts | 274° |
| 2026-04-22 14:23 | 40.37128 | 19.36051 | 21638 ft | 358 kts | 275° |
| 2026-04-22 14:23 | 40.37182 | 19.32823 | 21281 ft | 350 kts | 270° |
| 2026-04-22 14:24 | 40.36654 | 19.29693 | 20934 ft | 360 kts | 252° |
| 2026-04-22 14:24 | 40.35244 | 19.26880 | 20530 ft | 383 kts | 234° |
| 2026-04-22 14:24 | 40.33598 | 19.24668 | 20165 ft | 395 kts | 225° |
| 2026-04-22 14:24 | 40.31131 | 19.22949 | 19743 ft | 411 kts | 206° |
| 2026-04-22 14:25 | 40.28278 | 19.22315 | 19340 ft | 426 kts | 187° |
| 2026-04-22 14:25 | 40.25292 | 19.22701 | 18960 ft | 433 kts | 177° |
| 2026-04-22 14:25 | 40.22337 | 19.23408 | 18552 ft | 432 kts | 175° |
| 2026-04-22 14:25 | 40.19385 | 19.24172 | 18138 ft | 431 kts | 175° |
| 2026-04-22 14:26 | 40.16453 | 19.24939 | 17680 ft | 429 kts | 175° |
| 2026-04-22 14:26 | 40.13561 | 19.25700 | 17182 ft | 428 kts | 174° |
| 2026-04-22 14:26 | 40.10644 | 19.26467 | 16746 ft | 427 kts | 174° |
| 2026-04-22 14:26 | 40.07731 | 19.27229 | 16306 ft | 426 kts | 174° |
| 2026-04-22 14:27 | 40.04850 | 19.27981 | 15869 ft | 420 kts | 174° |
| 2026-04-22 14:27 | 40.02030 | 19.28716 | 15426 ft | 415 kts | 174° |
| 2026-04-22 14:27 | 39.99184 | 19.29458 | 14902 ft | 407 kts | 174° |
| 2026-04-22 14:27 | 39.96458 | 19.30173 | 14376 ft | 392 kts | 174° |
| 2026-04-22 14:28 | 39.93832 | 19.30867 | 13867 ft | 378 kts | 174° |
| 2026-04-22 14:28 | 39.91296 | 19.31540 | 13305 ft | 367 kts | 174° |
| 2026-04-22 14:28 | 39.88829 | 19.32194 | 12744 ft | 356 kts | 174° |
| 2026-04-22 14:28 | 39.86430 | 19.32830 | 12206 ft | 348 kts | 174° |
| 2026-04-22 14:29 | 39.84092 | 19.33452 | 11666 ft | 340 kts | 174° |
| 2026-04-22 14:29 | 39.81800 | 19.34090 | 11149 ft | 335 kts | 170° |
| 2026-04-22 14:29 | 39.79698 | 19.35425 | 10611 ft | 341 kts | 148° |
| 2026-04-22 14:29 | 39.77882 | 19.37390 | 10132 ft | 337 kts | 143° |
| 2026-04-22 14:30 | 39.76160 | 19.39404 | 9669 ft | 330 kts | 142° |
| 2026-04-22 14:30 | 39.74474 | 19.41392 | 9193 ft | 324 kts | 141° |
| 2026-04-22 14:30 | 39.72818 | 19.43334 | 8723 ft | 318 kts | 141° |
| 2026-04-22 14:30 | 39.71183 | 19.45240 | 8247 ft | 313 kts | 141° |
| 2026-04-22 14:31 | 39.69571 | 19.47100 | 7805 ft | 308 kts | 141° |
| 2026-04-22 14:31 | 39.67957 | 19.48899 | 7353 ft | 303 kts | 141° |
| 2026-04-22 14:31 | 39.66362 | 19.50648 | 6908 ft | 299 kts | 141° |
| 2026-04-22 14:31 | 39.64781 | 19.52370 | 6466 ft | 295 kts | 141° |
| 2026-04-22 14:32 | 39.63203 | 19.54052 | 6007 ft | 291 kts | 144° |
| 2026-04-22 14:32 | 39.61477 | 19.55357 | 5643 ft | 284 kts | 158° |
| 2026-04-22 14:32 | 39.59633 | 19.56222 | 5400 ft | 281 kts | 164° |
| 2026-04-22 14:32 | 39.57792 | 19.57056 | 5149 ft | 280 kts | 159° |
| 2026-04-22 14:33 | 39.56060 | 19.58200 | 4897 ft | 280 kts | 148° |
| 2026-04-22 14:33 | 39.54514 | 19.59724 | 4640 ft | 279 kts | 139° |
| 2026-04-22 14:33 | 39.53083 | 19.61454 | 4396 ft | 286 kts | 137° |
| 2026-04-22 14:33 | 39.51576 | 19.63146 | 4165 ft | 287 kts | 142° |
| 2026-04-22 14:34 | 39.49917 | 19.64616 | 4044 ft | 289 kts | 149° |
| 2026-04-22 14:34 | 39.48152 | 19.65934 | 4011 ft | 292 kts | 151° |
| 2026-04-22 14:34 | 39.46429 | 19.67226 | 3989 ft | 280 kts | 150° |
| 2026-04-22 14:34 | 39.44799 | 19.68520 | 3982 ft | 270 kts | 149° |
| 2026-04-22 14:35 | 39.43260 | 19.69838 | 3987 ft | 258 kts | 144° |
| 2026-04-22 14:35 | 39.41859 | 19.71184 | 3981 ft | 246 kts | 145° |
| 2026-04-22 14:35 | 39.40526 | 19.72515 | 3980 ft | 242 kts | 131° |
| 2026-04-22 14:35 | 39.39821 | 19.74415 | 4024 ft | 234 kts | 99° |
| 2026-04-22 14:36 | 39.39679 | 19.76504 | 4003 ft | 232 kts | 85° |
| 2026-04-22 14:36 | 39.39732 | 19.78587 | 4004 ft | 232 kts | 85° |
| 2026-04-22 14:36 | 39.39791 | 19.80673 | 4003 ft | 232 kts | 86° |
| 2026-04-22 14:36 | 39.39836 | 19.82762 | 4010 ft | 232 kts | 87° |
| 2026-04-22 14:37 | 39.39872 | 19.84845 | 4000 ft | 232 kts | 88° |
| 2026-04-22 14:37 | 39.39904 | 19.86926 | 4010 ft | 232 kts | 86° |
| 2026-04-22 14:37 | 39.40164 | 19.88964 | 4000 ft | 229 kts | 70° |
| 2026-04-22 14:37 | 39.40654 | 19.90919 | 4001 ft | 229 kts | 71° |
| 2026-04-22 14:38 | 39.41121 | 19.92892 | 3997 ft | 229 kts | 71° |
| 2026-04-22 14:38 | 39.41585 | 19.94857 | 3819 ft | 226 kts | 66° |
| 2026-04-22 14:38 | 39.42430 | 19.96385 | 3839 ft | 204 kts | 30° |
| 2026-04-22 14:38 | 39.43783 | 19.96991 | 3321 ft | 216 kts | 359° |
| 2026-04-22 14:39 | 39.45271 | 19.96635 | 2889 ft | 215 kts | 341° |
| 2026-04-22 14:39 | 39.46681 | 19.96123 | 2587 ft | 207 kts | 344° |
| 2026-04-22 14:39 | 39.48047 | 19.95654 | 2288 ft | 198 kts | 343° |
| 2026-04-22 14:40 | 39.50104 | 19.94899 | 1879 ft | 173 kts | 342° |
| 2026-04-22 14:40 | 39.51557 | 19.94355 | 1598 ft | 156 kts | 342° |
| 2026-04-22 14:40 | 39.52568 | 19.93976 | 1427 ft | 152 kts | 342° |
| 2026-04-22 14:40 | 39.53576 | 19.93598 | 1213 ft | 148 kts | 341° |
| 2026-04-22 14:41 | 39.54562 | 19.93228 | 1020 ft | 147 kts | 343° |
| 2026-04-22 14:41 | 39.55534 | 19.92865 | 814 ft | 144 kts | 341° |
| 2026-04-22 14:41 | 39.56504 | 19.92500 | 654 ft | 149 kts | 342° |
| 2026-04-22 14:41 | 39.57504 | 19.92120 | 415 ft | 151 kts | 343° |
| 2026-04-22 14:42 | 39.58492 | 19.91730 | 203 ft | 147 kts | 341° |
| 2026-04-22 14:42 | 39.59465 | 19.91403 | 12 ft | 143 kts | 346° |
| 2026-04-22 14:42 | 39.60321 | 19.91181 | 8 ft | 95 kts | 348° |
| 2026-04-22 14:42 | 39.60734 | 19.91074 | 8 ft | 41 kts | 349° |
| 2026-04-22 14:43 | 39.60908 | 19.91031 | 8 ft | 0 kts | 353° |
| 2026-04-22 14:43 | 39.60956 | 19.91021 | 10 ft | 14 kts | 349° |
| 2026-04-22 14:43 | 39.61036 | 19.91051 | 8 ft | 12 kts | 46° |
| 2026-04-22 14:43 | 39.61056 | 19.91084 | 8 ft | 2 kts | 61° |
| 2026-04-22 14:44 | 39.61054 | 19.91116 | 9 ft | 4 kts | 118° |
| 2026-04-22 14:44 | 39.61027 | 19.91131 | 8 ft | 7 kts | 162° |
| 2026-04-22 14:44 | 39.60957 | 19.91149 | 9 ft | 14 kts | 170° |
| 2026-04-22 14:44 | 39.60929 | 19.91174 | 8 ft | 5 kts | 102° |
| 2026-04-22 14:45 | 39.60937 | 19.91234 | 8 ft | 5 kts | 83° |
| 2026-04-22 14:45 | 39.60937 | 19.91235 | 8 ft | 0 kts | 83° |